sensor_id;sensor_type;location;lat;lon;timestamp;P1;durP1;ratioP1;P2;durP2;ratioP2
46815;SDS011;32787;53.316;8.670;2022-12-29T00:01:34;11.43;;;8.70;;
46815;SDS011;32787;53.316;8.670;2022-12-29T00:04:00;13.63;;;8.10;;
46815;SDS011;32787;53.316;8.670;2022-12-29T00:06:26;10.35;;;7.93;;
46815;SDS011;32787;53.316;8.670;2022-12-29T00:08:52;10.65;;;7.88;;
46815;SDS011;32787;53.316;8.670;2022-12-29T00:11:19;13.55;;;8.38;;
46815;SDS011;32787;53.316;8.670;2022-12-29T00:13:46;10.88;;;7.90;;
46815;SDS011;32787;53.316;8.670;2022-12-29T00:16:31;10.15;;;7.43;;
46815;SDS011;32787;53.316;8.670;2022-12-29T00:18:57;10.02;;;7.75;;
46815;SDS011;32787;53.316;8.670;2022-12-29T00:21:23;10.27;;;8.00;;
46815;SDS011;32787;53.316;8.670;2022-12-29T00:24:18;10.57;;;8.20;;
46815;SDS011;32787;53.316;8.670;2022-12-29T00:26:53;11.68;;;8.50;;
46815;SDS011;32787;53.316;8.670;2022-12-29T00:29:50;10.65;;;8.13;;
46815;SDS011;32787;53.316;8.670;2022-12-29T00:32:35;11.60;;;8.00;;
46815;SDS011;32787;53.316;8.670;2022-12-29T00:35:24;11.43;;;8.40;;
46815;SDS011;32787;53.316;8.670;2022-12-29T00:37:55;12.32;;;8.80;;
46815;SDS011;32787;53.316;8.670;2022-12-29T00:40:42;12.32;;;8.25;;
46815;SDS011;32787;53.316;8.670;2022-12-29T00:43:26;10.98;;;8.45;;
46815;SDS011;32787;53.316;8.670;2022-12-29T00:46:10;11.65;;;8.43;;
46815;SDS011;32787;53.316;8.670;2022-12-29T00:48:36;11.75;;;8.77;;
46815;SDS011;32787;53.316;8.670;2022-12-29T00:51:20;14.82;;;9.57;;
46815;SDS011;32787;53.316;8.670;2022-12-29T00:53:46;18.35;;;9.40;;
46815;SDS011;32787;53.316;8.670;2022-12-29T00:56:11;13.05;;;10.05;;
46815;SDS011;32787;53.316;8.670;2022-12-29T00:58:37;14.98;;;10.23;;
46815;SDS011;32787;53.316;8.670;2022-12-29T01:01:03;13.88;;;9.32;;
46815;SDS011;32787;53.316;8.670;2022-12-29T01:03:31;13.50;;;9.60;;
46815;SDS011;32787;53.316;8.670;2022-12-29T01:06:01;12.63;;;9.60;;
46815;SDS011;32787;53.316;8.670;2022-12-29T01:08:28;13.02;;;9.77;;
46815;SDS011;32787;53.316;8.670;2022-12-29T01:11:12;14.02;;;10.07;;
46815;SDS011;32787;53.316;8.670;2022-12-29T01:13:38;13.35;;;10.30;;
46815;SDS011;32787;53.316;8.670;2022-12-29T01:16:06;15.23;;;10.80;;
46815;SDS011;32787;53.316;8.670;2022-12-29T01:18:32;13.85;;;9.77;;
46815;SDS011;32787;53.316;8.670;2022-12-29T01:21:01;16.27;;;10.57;;
46815;SDS011;32787;53.316;8.670;2022-12-29T01:23:29;14.27;;;10.80;;
46815;SDS011;32787;53.316;8.670;2022-12-29T01:25:55;14.80;;;10.93;;
46815;SDS011;32787;53.316;8.670;2022-12-29T01:28:20;15.32;;;10.57;;
46815;SDS011;32787;53.316;8.670;2022-12-29T01:30:46;17.60;;;10.95;;
46815;SDS011;32787;53.316;8.670;2022-12-29T01:33:12;15.40;;;10.63;;
46815;SDS011;32787;53.316;8.670;2022-12-29T01:35:38;14.88;;;11.07;;
46815;SDS011;32787;53.316;8.670;2022-12-29T01:38:03;14.45;;;10.98;;
46815;SDS011;32787;53.316;8.670;2022-12-29T01:40:29;14.60;;;11.52;;
46815;SDS011;32787;53.316;8.670;2022-12-29T01:42:54;13.98;;;10.20;;
46815;SDS011;32787;53.316;8.670;2022-12-29T01:45:20;14.32;;;11.13;;
46815;SDS011;32787;53.316;8.670;2022-12-29T01:47:53;15.52;;;11.15;;
46815;SDS011;32787;53.316;8.670;2022-12-29T01:50:24;13.98;;;10.52;;
46815;SDS011;32787;53.316;8.670;2022-12-29T01:52:52;13.27;;;10.13;;
46815;SDS011;32787;53.316;8.670;2022-12-29T01:55:22;14.77;;;10.40;;
46815;SDS011;32787;53.316;8.670;2022-12-29T01:57:50;13.60;;;10.30;;
46815;SDS011;32787;53.316;8.670;2022-12-29T02:00:18;13.35;;;9.65;;
46815;SDS011;32787;53.316;8.670;2022-12-29T02:02:45;15.05;;;9.95;;
46815;SDS011;32787;53.316;8.670;2022-12-29T02:05:23;12.13;;;9.52;;
46815;SDS011;32787;53.316;8.670;2022-12-29T02:07:55;12.13;;;9.70;;
46815;SDS011;32787;53.316;8.670;2022-12-29T02:10:22;13.70;;;9.35;;
46815;SDS011;32787;53.316;8.670;2022-12-29T02:12:50;12.30;;;8.73;;
46815;SDS011;32787;53.316;8.670;2022-12-29T02:15:17;13.18;;;9.05;;
46815;SDS011;32787;53.316;8.670;2022-12-29T02:31:46;9.43;;;6.68;;
46815;SDS011;32787;53.316;8.670;2022-12-29T02:37:20;9.13;;;6.43;;
46815;SDS011;32787;53.316;8.670;2022-12-29T02:45:15;9.02;;;6.25;;
46815;SDS011;32787;53.316;8.670;2022-12-29T02:48:04;9.90;;;6.53;;
46815;SDS011;32787;53.316;8.670;2022-12-29T02:50:34;8.85;;;6.03;;
46815;SDS011;32787;53.316;8.670;2022-12-29T02:53:07;8.20;;;5.80;;
46815;SDS011;32787;53.316;8.670;2022-12-29T02:55:37;8.55;;;6.35;;
46815;SDS011;32787;53.316;8.670;2022-12-29T02:58:18;8.48;;;5.68;;
46815;SDS011;32787;53.316;8.670;2022-12-29T03:06:30;11.48;;;5.22;;
46815;SDS011;32787;53.316;8.670;2022-12-29T03:12:17;7.88;;;5.03;;
46815;SDS011;32787;53.316;8.670;2022-12-29T03:14:52;11.07;;;5.80;;
46815;SDS011;32787;53.316;8.670;2022-12-29T03:18:05;9.18;;;5.78;;
46815;SDS011;32787;53.316;8.670;2022-12-29T03:20:57;8.23;;;5.45;;
46815;SDS011;32787;53.316;8.670;2022-12-29T03:23:27;8.93;;;5.78;;
46815;SDS011;32787;53.316;8.670;2022-12-29T03:25:56;10.50;;;6.18;;
46815;SDS011;32787;53.316;8.670;2022-12-29T03:28:31;7.68;;;5.80;;
46815;SDS011;32787;53.316;8.670;2022-12-29T03:31:00;8.13;;;5.97;;
46815;SDS011;32787;53.316;8.670;2022-12-29T03:33:29;8.25;;;6.10;;
46815;SDS011;32787;53.316;8.670;2022-12-29T03:35:59;8.63;;;6.10;;
46815;SDS011;32787;53.316;8.670;2022-12-29T03:38:42;9.07;;;6.25;;
46815;SDS011;32787;53.316;8.670;2022-12-29T03:41:13;10.77;;;6.55;;
46815;SDS011;32787;53.316;8.670;2022-12-29T03:43:42;8.73;;;6.20;;
46815;SDS011;32787;53.316;8.670;2022-12-29T03:46:08;9.32;;;6.07;;
46815;SDS011;32787;53.316;8.670;2022-12-29T03:48:34;8.02;;;5.88;;
46815;SDS011;32787;53.316;8.670;2022-12-29T03:50:59;9.65;;;5.93;;
46815;SDS011;32787;53.316;8.670;2022-12-29T03:53:25;7.93;;;5.43;;
46815;SDS011;32787;53.316;8.670;2022-12-29T03:55:50;8.25;;;5.05;;
46815;SDS011;32787;53.316;8.670;2022-12-29T03:58:16;7.22;;;4.85;;
46815;SDS011;32787;53.316;8.670;2022-12-29T04:00:42;10.27;;;5.13;;
46815;SDS011;32787;53.316;8.670;2022-12-29T04:03:07;6.88;;;4.80;;
46815;SDS011;32787;53.316;8.670;2022-12-29T04:05:33;8.23;;;4.90;;
46815;SDS011;32787;53.316;8.670;2022-12-29T04:07:58;8.05;;;4.60;;
46815;SDS011;32787;53.316;8.670;2022-12-29T04:10:24;8.23;;;4.80;;
46815;SDS011;32787;53.316;8.670;2022-12-29T04:12:50;6.68;;;4.70;;
46815;SDS011;32787;53.316;8.670;2022-12-29T04:15:16;7.20;;;4.78;;
46815;SDS011;32787;53.316;8.670;2022-12-29T04:17:41;8.30;;;4.30;;
46815;SDS011;32787;53.316;8.670;2022-12-29T04:20:07;6.95;;;4.82;;
46815;SDS011;32787;53.316;8.670;2022-12-29T04:23:04;9.80;;;5.72;;
46815;SDS011;32787;53.316;8.670;2022-12-29T04:25:31;10.27;;;5.38;;
46815;SDS011;32787;53.316;8.670;2022-12-29T04:27:57;8.52;;;6.18;;
46815;SDS011;32787;53.316;8.670;2022-12-29T04:30:23;9.10;;;5.93;;
46815;SDS011;32787;53.316;8.670;2022-12-29T04:32:48;8.52;;;5.97;;
46815;SDS011;32787;53.316;8.670;2022-12-29T04:35:14;8.95;;;5.82;;
46815;SDS011;32787;53.316;8.670;2022-12-29T04:37:40;9.25;;;6.28;;
46815;SDS011;32787;53.316;8.670;2022-12-29T04:40:06;9.02;;;6.78;;
46815;SDS011;32787;53.316;8.670;2022-12-29T04:42:32;10.48;;;6.38;;
46815;SDS011;32787;53.316;8.670;2022-12-29T04:44:58;10.18;;;6.22;;
46815;SDS011;32787;53.316;8.670;2022-12-29T04:47:23;8.23;;;5.93;;
46815;SDS011;32787;53.316;8.670;2022-12-29T04:49:49;9.52;;;6.07;;
46815;SDS011;32787;53.316;8.670;2022-12-29T04:52:14;8.85;;;6.20;;
46815;SDS011;32787;53.316;8.670;2022-12-29T04:54:40;8.35;;;5.88;;
46815;SDS011;32787;53.316;8.670;2022-12-29T04:57:05;9.07;;;5.88;;
46815;SDS011;32787;53.316;8.670;2022-12-29T04:59:31;8.93;;;6.28;;
46815;SDS011;32787;53.316;8.670;2022-12-29T05:01:57;8.50;;;5.50;;
46815;SDS011;32787;53.316;8.670;2022-12-29T05:04:22;9.23;;;5.80;;
46815;SDS011;32787;53.316;8.670;2022-12-29T05:06:48;9.05;;;5.43;;
46815;SDS011;32787;53.316;8.670;2022-12-29T05:09:13;7.38;;;5.03;;
46815;SDS011;32787;53.316;8.670;2022-12-29T05:11:39;10.23;;;4.60;;
46815;SDS011;32787;53.316;8.670;2022-12-29T05:14:05;7.00;;;4.53;;
46815;SDS011;32787;53.316;8.670;2022-12-29T05:16:30;7.38;;;4.13;;
46815;SDS011;32787;53.316;8.670;2022-12-29T05:18:56;7.57;;;3.88;;
46815;SDS011;32787;53.316;8.670;2022-12-29T05:21:21;6.30;;;3.53;;
46815;SDS011;32787;53.316;8.670;2022-12-29T05:23:47;5.80;;;2.90;;
46815;SDS011;32787;53.316;8.670;2022-12-29T05:26:13;6.47;;;2.50;;
46815;SDS011;32787;53.316;8.670;2022-12-29T05:28:38;6.03;;;2.10;;
46815;SDS011;32787;53.316;8.670;2022-12-29T05:31:04;4.15;;;2.13;;
46815;SDS011;32787;53.316;8.670;2022-12-29T05:33:31;5.90;;;2.08;;
46815;SDS011;32787;53.316;8.670;2022-12-29T05:35:56;3.83;;;1.60;;
46815;SDS011;32787;53.316;8.670;2022-12-29T05:38:22;4.10;;;1.60;;
46815;SDS011;32787;53.316;8.670;2022-12-29T05:40:48;5.68;;;1.90;;
46815;SDS011;32787;53.316;8.670;2022-12-29T05:43:13;4.47;;;1.40;;
46815;SDS011;32787;53.316;8.670;2022-12-29T05:45:39;3.40;;;1.10;;
46815;SDS011;32787;53.316;8.670;2022-12-29T05:48:04;5.10;;;1.17;;
46815;SDS011;32787;53.316;8.670;2022-12-29T05:50:30;4.28;;;1.20;;
46815;SDS011;32787;53.316;8.670;2022-12-29T05:52:56;4.55;;;1.30;;
46815;SDS011;32787;53.316;8.670;2022-12-29T05:55:21;5.28;;;1.10;;
46815;SDS011;32787;53.316;8.670;2022-12-29T05:57:47;4.65;;;1.10;;
46815;SDS011;32787;53.316;8.670;2022-12-29T06:00:13;3.92;;;1.10;;
46815;SDS011;32787;53.316;8.670;2022-12-29T06:02:39;3.50;;;1.08;;
46815;SDS011;32787;53.316;8.670;2022-12-29T06:05:05;4.05;;;0.93;;
46815;SDS011;32787;53.316;8.670;2022-12-29T06:07:30;3.90;;;0.93;;
46815;SDS011;32787;53.316;8.670;2022-12-29T06:09:56;2.90;;;1.02;;
46815;SDS011;32787;53.316;8.670;2022-12-29T06:12:21;1.92;;;0.88;;
46815;SDS011;32787;53.316;8.670;2022-12-29T06:14:47;3.90;;;1.08;;
46815;SDS011;32787;53.316;8.670;2022-12-29T06:17:13;3.00;;;1.00;;
46815;SDS011;32787;53.316;8.670;2022-12-29T06:19:38;4.50;;;1.20;;
46815;SDS011;32787;53.316;8.670;2022-12-29T06:22:04;2.35;;;0.90;;
46815;SDS011;32787;53.316;8.670;2022-12-29T06:24:30;2.42;;;1.05;;
46815;SDS011;32787;53.316;8.670;2022-12-29T06:26:55;2.28;;;0.95;;
46815;SDS011;32787;53.316;8.670;2022-12-29T06:29:21;4.18;;;1.20;;
46815;SDS011;32787;53.316;8.670;2022-12-29T06:31:46;3.70;;;1.15;;
46815;SDS011;32787;53.316;8.670;2022-12-29T06:34:13;5.28;;;1.30;;
46815;SDS011;32787;53.316;8.670;2022-12-29T06:36:39;4.32;;;1.20;;
46815;SDS011;32787;53.316;8.670;2022-12-29T06:39:05;3.78;;;0.98;;
46815;SDS011;32787;53.316;8.670;2022-12-29T06:41:31;3.97;;;0.93;;
46815;SDS011;32787;53.316;8.670;2022-12-29T06:43:56;3.38;;;1.20;;
46815;SDS011;32787;53.316;8.670;2022-12-29T06:46:22;4.22;;;1.42;;
46815;SDS011;32787;53.316;8.670;2022-12-29T06:48:48;5.40;;;1.20;;
46815;SDS011;32787;53.316;8.670;2022-12-29T06:51:13;4.57;;;1.40;;
46815;SDS011;32787;53.316;8.670;2022-12-29T06:53:39;7.00;;;1.40;;
46815;SDS011;32787;53.316;8.670;2022-12-29T06:56:04;6.97;;;1.25;;
46815;SDS011;32787;53.316;8.670;2022-12-29T06:58:30;5.75;;;1.52;;
46815;SDS011;32787;53.316;8.670;2022-12-29T07:00:56;5.05;;;1.65;;
46815;SDS011;32787;53.316;8.670;2022-12-29T07:03:21;4.60;;;1.33;;
46815;SDS011;32787;53.316;8.670;2022-12-29T07:05:47;5.57;;;1.58;;
46815;SDS011;32787;53.316;8.670;2022-12-29T07:08:12;3.92;;;1.23;;
46815;SDS011;32787;53.316;8.670;2022-12-29T07:10:39;5.40;;;1.30;;
46815;SDS011;32787;53.316;8.670;2022-12-29T07:13:04;5.82;;;1.52;;
46815;SDS011;32787;53.316;8.670;2022-12-29T07:15:32;6.45;;;1.42;;
46815;SDS011;32787;53.316;8.670;2022-12-29T07:17:58;4.65;;;1.38;;
46815;SDS011;32787;53.316;8.670;2022-12-29T07:20:24;5.55;;;1.55;;
46815;SDS011;32787;53.316;8.670;2022-12-29T07:22:49;7.90;;;1.60;;
46815;SDS011;32787;53.316;8.670;2022-12-29T07:25:15;4.18;;;1.45;;
46815;SDS011;32787;53.316;8.670;2022-12-29T07:27:41;3.70;;;1.60;;
46815;SDS011;32787;53.316;8.670;2022-12-29T07:30:06;7.07;;;1.58;;
46815;SDS011;32787;53.316;8.670;2022-12-29T07:32:33;5.35;;;1.50;;
46815;SDS011;32787;53.316;8.670;2022-12-29T07:34:59;6.03;;;1.60;;
46815;SDS011;32787;53.316;8.670;2022-12-29T07:37:25;7.10;;;1.50;;
46815;SDS011;32787;53.316;8.670;2022-12-29T07:39:50;4.30;;;1.27;;
46815;SDS011;32787;53.316;8.670;2022-12-29T07:42:16;4.63;;;1.35;;
46815;SDS011;32787;53.316;8.670;2022-12-29T07:44:42;4.53;;;1.25;;
46815;SDS011;32787;53.316;8.670;2022-12-29T07:47:07;6.18;;;1.75;;
46815;SDS011;32787;53.316;8.670;2022-12-29T07:49:33;7.22;;;1.50;;
46815;SDS011;32787;53.316;8.670;2022-12-29T07:51:58;6.40;;;1.60;;
46815;SDS011;32787;53.316;8.670;2022-12-29T07:54:24;5.45;;;2.08;;
46815;SDS011;32787;53.316;8.670;2022-12-29T07:56:50;5.25;;;1.15;;
46815;SDS011;32787;53.316;8.670;2022-12-29T07:59:16;4.65;;;1.15;;
46815;SDS011;32787;53.316;8.670;2022-12-29T08:01:42;8.40;;;1.55;;
46815;SDS011;32787;53.316;8.670;2022-12-29T08:04:07;5.85;;;1.23;;
46815;SDS011;32787;53.316;8.670;2022-12-29T08:06:33;6.38;;;1.20;;
46815;SDS011;32787;53.316;8.670;2022-12-29T08:08:59;7.40;;;1.67;;
46815;SDS011;32787;53.316;8.670;2022-12-29T08:11:25;8.38;;;1.67;;
46815;SDS011;32787;53.316;8.670;2022-12-29T08:13:51;4.50;;;1.10;;
46815;SDS011;32787;53.316;8.670;2022-12-29T08:16:17;4.40;;;1.02;;
46815;SDS011;32787;53.316;8.670;2022-12-29T08:18:43;7.28;;;1.40;;
46815;SDS011;32787;53.316;8.670;2022-12-29T08:21:09;6.43;;;1.30;;
46815;SDS011;32787;53.316;8.670;2022-12-29T08:23:35;7.97;;;1.40;;
46815;SDS011;32787;53.316;8.670;2022-12-29T08:26:01;10.18;;;1.48;;
46815;SDS011;32787;53.316;8.670;2022-12-29T08:28:28;6.38;;;1.27;;
46815;SDS011;32787;53.316;8.670;2022-12-29T08:30:56;9.77;;;1.35;;
46815;SDS011;32787;53.316;8.670;2022-12-29T08:33:23;8.98;;;1.60;;
46815;SDS011;32787;53.316;8.670;2022-12-29T08:35:49;7.07;;;1.98;;
46815;SDS011;32787;53.316;8.670;2022-12-29T08:38:14;5.57;;;1.17;;
46815;SDS011;32787;53.316;8.670;2022-12-29T08:40:40;6.18;;;1.40;;
46815;SDS011;32787;53.316;8.670;2022-12-29T08:43:06;7.78;;;1.42;;
46815;SDS011;32787;53.316;8.670;2022-12-29T08:45:32;5.82;;;1.23;;
46815;SDS011;32787;53.316;8.670;2022-12-29T08:47:57;8.88;;;1.30;;
46815;SDS011;32787;53.316;8.670;2022-12-29T08:50:23;5.97;;;1.27;;
46815;SDS011;32787;53.316;8.670;2022-12-29T08:52:48;8.68;;;1.40;;
46815;SDS011;32787;53.316;8.670;2022-12-29T08:55:14;9.07;;;1.50;;
46815;SDS011;32787;53.316;8.670;2022-12-29T08:57:40;8.00;;;1.73;;
46815;SDS011;32787;53.316;8.670;2022-12-29T09:00:06;9.07;;;1.80;;
46815;SDS011;32787;53.316;8.670;2022-12-29T09:02:32;8.30;;;1.42;;
46815;SDS011;32787;53.316;8.670;2022-12-29T09:04:57;6.63;;;1.98;;
46815;SDS011;32787;53.316;8.670;2022-12-29T09:07:24;12.15;;;1.38;;
46815;SDS011;32787;53.316;8.670;2022-12-29T09:09:49;8.32;;;1.58;;
46815;SDS011;32787;53.316;8.670;2022-12-29T09:12:16;5.93;;;1.20;;
46815;SDS011;32787;53.316;8.670;2022-12-29T09:14:42;7.15;;;1.50;;
46815;SDS011;32787;53.316;8.670;2022-12-29T09:17:09;12.88;;;1.63;;
46815;SDS011;32787;53.316;8.670;2022-12-29T09:19:54;6.43;;;1.40;;
46815;SDS011;32787;53.316;8.670;2022-12-29T09:22:20;8.98;;;1.88;;
46815;SDS011;32787;53.316;8.670;2022-12-29T09:24:46;8.18;;;1.70;;
46815;SDS011;32787;53.316;8.670;2022-12-29T09:27:11;7.85;;;2.22;;
46815;SDS011;32787;53.316;8.670;2022-12-29T09:29:37;9.45;;;1.70;;
46815;SDS011;32787;53.316;8.670;2022-12-29T09:32:03;6.88;;;1.77;;
46815;SDS011;32787;53.316;8.670;2022-12-29T09:34:29;11.05;;;1.38;;
46815;SDS011;32787;53.316;8.670;2022-12-29T09:36:54;9.00;;;1.92;;
46815;SDS011;32787;53.316;8.670;2022-12-29T09:39:21;6.93;;;1.92;;
46815;SDS011;32787;53.316;8.670;2022-12-29T09:44:55;7.13;;;1.30;;
46815;SDS011;32787;53.316;8.670;2022-12-29T09:47:41;8.32;;;1.63;;
46815;SDS011;32787;53.316;8.670;2022-12-29T09:50:11;10.82;;;1.77;;
46815;SDS011;32787;53.316;8.670;2022-12-29T09:52:58;14.25;;;2.53;;
46815;SDS011;32787;53.316;8.670;2022-12-29T09:55:29;9.15;;;1.88;;
46815;SDS011;32787;53.316;8.670;2022-12-29T09:58:05;7.38;;;1.55;;
46815;SDS011;32787;53.316;8.670;2022-12-29T10:03:16;10.52;;;1.77;;
46815;SDS011;32787;53.316;8.670;2022-12-29T10:10:57;7.10;;;1.55;;
46815;SDS011;32787;53.316;8.670;2022-12-29T10:13:51;9.95;;;1.80;;
46815;SDS011;32787;53.316;8.670;2022-12-29T10:24:56;9.98;;;1.45;;
46815;SDS011;32787;53.316;8.670;2022-12-29T10:27:22;7.95;;;1.58;;
46815;SDS011;32787;53.316;8.670;2022-12-29T10:29:51;8.23;;;1.42;;
46815;SDS011;32787;53.316;8.670;2022-12-29T10:32:25;7.80;;;1.40;;
46815;SDS011;32787;53.316;8.670;2022-12-29T10:35:31;8.82;;;1.70;;
46815;SDS011;32787;53.316;8.670;2022-12-29T10:37:56;4.72;;;1.15;;
46815;SDS011;32787;53.316;8.670;2022-12-29T10:43:05;7.85;;;1.27;;
46815;SDS011;32787;53.316;8.670;2022-12-29T10:45:42;8.13;;;1.40;;
46815;SDS011;32787;53.316;8.670;2022-12-29T10:48:21;5.63;;;1.20;;
46815;SDS011;32787;53.316;8.670;2022-12-29T10:50:49;6.65;;;1.27;;
46815;SDS011;32787;53.316;8.670;2022-12-29T10:53:21;5.95;;;1.10;;
46815;SDS011;32787;53.316;8.670;2022-12-29T10:55:50;6.75;;;1.40;;
46815;SDS011;32787;53.316;8.670;2022-12-29T10:58:17;6.18;;;1.40;;
46815;SDS011;32787;53.316;8.670;2022-12-29T11:00:48;8.35;;;1.17;;
46815;SDS011;32787;53.316;8.670;2022-12-29T11:06:24;4.30;;;0.77;;
46815;SDS011;32787;53.316;8.670;2022-12-29T11:09:26;9.23;;;1.17;;
46815;SDS011;32787;53.316;8.670;2022-12-29T11:11:57;5.93;;;1.00;;
46815;SDS011;32787;53.316;8.670;2022-12-29T11:14:27;7.13;;;1.00;;
46815;SDS011;32787;53.316;8.670;2022-12-29T11:16:59;8.05;;;1.33;;
46815;SDS011;32787;53.316;8.670;2022-12-29T11:19:30;8.48;;;1.10;;
46815;SDS011;32787;53.316;8.670;2022-12-29T11:24:47;4.28;;;0.98;;
46815;SDS011;32787;53.316;8.670;2022-12-29T11:27:15;8.45;;;1.42;;
46815;SDS011;32787;53.316;8.670;2022-12-29T11:29:44;8.63;;;1.55;;
46815;SDS011;32787;53.316;8.670;2022-12-29T11:32:20;5.22;;;1.05;;
46815;SDS011;32787;53.316;8.670;2022-12-29T11:34:51;12.07;;;1.67;;
46815;SDS011;32787;53.316;8.670;2022-12-29T11:37:59;9.10;;;1.52;;
46815;SDS011;32787;53.316;8.670;2022-12-29T11:40:18;6.35;;;1.20;;
46815;SDS011;32787;53.316;8.670;2022-12-29T11:45:24;9.95;;;1.60;;
46815;SDS011;32787;53.316;8.670;2022-12-29T11:47:58;7.20;;;1.17;;
46815;SDS011;32787;53.316;8.670;2022-12-29T11:50:31;9.85;;;1.50;;
46815;SDS011;32787;53.316;8.670;2022-12-29T11:53:19;9.35;;;1.25;;
46815;SDS011;32787;53.316;8.670;2022-12-29T11:56:00;15.10;;;1.67;;
46815;SDS011;32787;53.316;8.670;2022-12-29T11:58:33;6.10;;;1.23;;
46815;SDS011;32787;53.316;8.670;2022-12-29T12:01:11;9.55;;;1.70;;
46815;SDS011;32787;53.316;8.670;2022-12-29T12:04:01;9.23;;;1.25;;
46815;SDS011;32787;53.316;8.670;2022-12-29T12:06:33;6.30;;;1.38;;
46815;SDS011;32787;53.316;8.670;2022-12-29T12:09:10;6.85;;;1.50;;
46815;SDS011;32787;53.316;8.670;2022-12-29T12:11:51;10.10;;;1.50;;
46815;SDS011;32787;53.316;8.670;2022-12-29T12:14:34;11.13;;;1.58;;
46815;SDS011;32787;53.316;8.670;2022-12-29T12:17:14;12.30;;;1.55;;
46815;SDS011;32787;53.316;8.670;2022-12-29T12:22:36;6.63;;;1.35;;
46815;SDS011;32787;53.316;8.670;2022-12-29T12:25:14;10.10;;;1.67;;
46815;SDS011;32787;53.316;8.670;2022-12-29T12:30:18;9.18;;;1.85;;
46815;SDS011;32787;53.316;8.670;2022-12-29T12:32:58;7.78;;;1.42;;
46815;SDS011;32787;53.316;8.670;2022-12-29T12:40:58;8.80;;;1.80;;
46815;SDS011;32787;53.316;8.670;2022-12-29T12:43:49;8.23;;;1.52;;
46815;SDS011;32787;53.316;8.670;2022-12-29T12:59:52;7.93;;;1.25;;
46815;SDS011;32787;53.316;8.670;2022-12-29T13:05:20;11.93;;;1.70;;
46815;SDS011;32787;53.316;8.670;2022-12-29T13:20:24;7.68;;;1.55;;
46815;SDS011;32787;53.316;8.670;2022-12-29T13:28:16;8.73;;;1.40;;
46815;SDS011;32787;53.316;8.670;2022-12-29T13:31:07;9.90;;;1.35;;
46815;SDS011;32787;53.316;8.670;2022-12-29T13:36:21;5.70;;;1.48;;
46815;SDS011;32787;53.316;8.670;2022-12-29T13:39:16;10.02;;;1.50;;
46815;SDS011;32787;53.316;8.670;2022-12-29T13:41:47;6.75;;;1.27;;
46815;SDS011;32787;53.316;8.670;2022-12-29T13:44:37;7.63;;;1.30;;
46815;SDS011;32787;53.316;8.670;2022-12-29T13:47:11;8.18;;;1.52;;
46815;SDS011;32787;53.316;8.670;2022-12-29T13:49:52;13.57;;;2.00;;
46815;SDS011;32787;53.316;8.670;2022-12-29T13:52:36;8.07;;;1.70;;
46815;SDS011;32787;53.316;8.670;2022-12-29T13:57:37;6.10;;;1.98;;
46815;SDS011;32787;53.316;8.670;2022-12-29T14:00:16;9.05;;;1.60;;
46815;SDS011;32787;53.316;8.670;2022-12-29T14:07:48;12.80;;;2.85;;
46815;SDS011;32787;53.316;8.670;2022-12-29T14:10:37;13.45;;;2.60;;
46815;SDS011;32787;53.316;8.670;2022-12-29T14:15:43;16.70;;;3.15;;
46815;SDS011;32787;53.316;8.670;2022-12-29T14:18:12;10.97;;;2.17;;
46815;SDS011;32787;53.316;8.670;2022-12-29T14:20:41;13.82;;;2.22;;
46815;SDS011;32787;53.316;8.670;2022-12-29T14:25:54;13.77;;;2.00;;
46815;SDS011;32787;53.316;8.670;2022-12-29T14:28:27;11.82;;;3.22;;
46815;SDS011;32787;53.316;8.670;2022-12-29T14:30:55;11.13;;;2.40;;
46815;SDS011;32787;53.316;8.670;2022-12-29T14:33:22;15.40;;;2.40;;
46815;SDS011;32787;53.316;8.670;2022-12-29T14:35:51;14.27;;;1.88;;
46815;SDS011;32787;53.316;8.670;2022-12-29T14:38:22;14.15;;;2.83;;
46815;SDS011;32787;53.316;8.670;2022-12-29T14:40:52;9.45;;;1.90;;
46815;SDS011;32787;53.316;8.670;2022-12-29T14:43:38;11.35;;;2.00;;
46815;SDS011;32787;53.316;8.670;2022-12-29T14:46:04;11.85;;;2.42;;
46815;SDS011;32787;53.316;8.670;2022-12-29T14:48:34;13.00;;;2.25;;
46815;SDS011;32787;53.316;8.670;2022-12-29T14:51:01;12.80;;;2.20;;
46815;SDS011;32787;53.316;8.670;2022-12-29T14:56:11;8.32;;;2.05;;
46815;SDS011;32787;53.316;8.670;2022-12-29T14:58:46;8.77;;;2.13;;
46815;SDS011;32787;53.316;8.670;2022-12-29T15:01:42;13.38;;;2.10;;
46815;SDS011;32787;53.316;8.670;2022-12-29T15:06:44;14.02;;;2.17;;
46815;SDS011;32787;53.316;8.670;2022-12-29T15:12:06;16.55;;;2.55;;
46815;SDS011;32787;53.316;8.670;2022-12-29T15:14:38;15.57;;;2.20;;
46815;SDS011;32787;53.316;8.670;2022-12-29T15:17:30;11.90;;;2.35;;
46815;SDS011;32787;53.316;8.670;2022-12-29T15:19:58;14.00;;;2.30;;
46815;SDS011;32787;53.316;8.670;2022-12-29T15:22:43;16.17;;;2.38;;
46815;SDS011;32787;53.316;8.670;2022-12-29T15:25:16;9.63;;;1.95;;
46815;SDS011;32787;53.316;8.670;2022-12-29T15:27:43;11.18;;;2.65;;
46815;SDS011;32787;53.316;8.670;2022-12-29T15:30:17;14.05;;;2.50;;
46815;SDS011;32787;53.316;8.670;2022-12-29T15:32:43;8.57;;;1.88;;
46815;SDS011;32787;53.316;8.670;2022-12-29T15:35:27;12.68;;;2.25;;
46815;SDS011;32787;53.316;8.670;2022-12-29T15:37:58;8.05;;;2.70;;
46815;SDS011;32787;53.316;8.670;2022-12-29T15:40:31;12.20;;;2.08;;
46815;SDS011;32787;53.316;8.670;2022-12-29T15:43:05;13.48;;;2.17;;
46815;SDS011;32787;53.316;8.670;2022-12-29T15:45:55;8.60;;;2.50;;
46815;SDS011;32787;53.316;8.670;2022-12-29T15:48:21;12.80;;;2.60;;
46815;SDS011;32787;53.316;8.670;2022-12-29T15:50:49;9.48;;;1.80;;
46815;SDS011;32787;53.316;8.670;2022-12-29T15:53:18;20.95;;;2.85;;
46815;SDS011;32787;53.316;8.670;2022-12-29T15:55:51;10.13;;;2.10;;
46815;SDS011;32787;53.316;8.670;2022-12-29T15:58:19;10.25;;;1.88;;
46815;SDS011;32787;53.316;8.670;2022-12-29T16:00:54;10.43;;;2.08;;
46815;SDS011;32787;53.316;8.670;2022-12-29T16:03:22;15.77;;;3.22;;
46815;SDS011;32787;53.316;8.670;2022-12-29T16:05:56;14.73;;;2.75;;
46815;SDS011;32787;53.316;8.670;2022-12-29T16:08:32;15.25;;;2.92;;
46815;SDS011;32787;53.316;8.670;2022-12-29T16:11:03;13.93;;;2.40;;
46815;SDS011;32787;53.316;8.670;2022-12-29T16:13:50;17.40;;;2.10;;
46815;SDS011;32787;53.316;8.670;2022-12-29T16:16:19;13.30;;;2.47;;
46815;SDS011;32787;53.316;8.670;2022-12-29T16:18:49;16.95;;;3.00;;
46815;SDS011;32787;53.316;8.670;2022-12-29T16:21:23;12.98;;;3.10;;
46815;SDS011;32787;53.316;8.670;2022-12-29T16:23:51;9.70;;;2.40;;
46815;SDS011;32787;53.316;8.670;2022-12-29T16:26:20;15.25;;;2.42;;
46815;SDS011;32787;53.316;8.670;2022-12-29T16:28:48;13.30;;;2.80;;
46815;SDS011;32787;53.316;8.670;2022-12-29T16:39:10;15.48;;;3.25;;
46815;SDS011;32787;53.316;8.670;2022-12-29T16:41:49;14.80;;;2.92;;
46815;SDS011;32787;53.316;8.670;2022-12-29T16:44:16;13.98;;;3.20;;
46815;SDS011;32787;53.316;8.670;2022-12-29T16:47:05;13.77;;;3.00;;
46815;SDS011;32787;53.316;8.670;2022-12-29T16:49:32;12.25;;;4.40;;
46815;SDS011;32787;53.316;8.670;2022-12-29T16:51:59;13.10;;;3.85;;
46815;SDS011;32787;53.316;8.670;2022-12-29T16:54:33;18.83;;;4.10;;
46815;SDS011;32787;53.316;8.670;2022-12-29T16:57:01;14.75;;;3.47;;
46815;SDS011;32787;53.316;8.670;2022-12-29T16:59:32;15.55;;;2.85;;
46815;SDS011;32787;53.316;8.670;2022-12-29T17:02:16;12.75;;;3.15;;
46815;SDS011;32787;53.316;8.670;2022-12-29T17:04:45;13.85;;;2.78;;
46815;SDS011;32787;53.316;8.670;2022-12-29T17:07:17;13.13;;;3.75;;
46815;SDS011;32787;53.316;8.670;2022-12-29T17:09:47;11.63;;;3.00;;
46815;SDS011;32787;53.316;8.670;2022-12-29T17:12:21;9.20;;;3.30;;
46815;SDS011;32787;53.316;8.670;2022-12-29T17:14:49;12.75;;;2.70;;
46815;SDS011;32787;53.316;8.670;2022-12-29T17:20:20;16.38;;;3.58;;
46815;SDS011;32787;53.316;8.670;2022-12-29T17:22:46;11.93;;;2.97;;